createdAt,value
2019-03-06T00:02:13.649Z,97660.84
2019-03-06T00:04:46.221Z,97665.91
2019-03-06T00:07:18.160Z,97669.39
2019-03-06T00:09:50.414Z,97674.63
2019-03-06T00:12:22.769Z,97677.14
2019-03-06T00:14:55.580Z,97678.60
2019-03-06T00:17:27.938Z,97673.87
2019-03-06T00:19:59.865Z,97670.52
2019-03-06T00:22:32.113Z,97667.91
2019-03-06T00:25:04.515Z,97669.04
2019-03-06T00:27:36.461Z,97667.70
2019-03-06T00:30:09.155Z,97671.14
2019-03-06T00:32:41.806Z,97668.37
2019-03-06T00:35:19.074Z,97658.48
2019-03-06T00:37:51.310Z,97647.56
2019-03-06T00:40:46.352Z,97651.98
2019-03-06T00:43:18.364Z,97656.48
2019-03-06T00:45:51.500Z,97655.41
2019-03-06T00:48:23.747Z,97656.69
2019-03-06T00:50:55.685Z,97660.30
2019-03-06T00:53:27.943Z,97657.48
2019-03-06T00:55:59.887Z,97649.64
2019-03-06T00:58:32.626Z,97645.05
2019-03-06T01:01:04.887Z,97646.37
2019-03-06T01:03:36.830Z,97648.47
2019-03-06T01:06:10.277Z,97647.52
2019-03-06T01:08:43.053Z,97648.31
2019-03-06T01:11:15.070Z,97643.63
2019-03-06T01:13:47.332Z,97638.79
2019-03-06T01:16:19.690Z,97642.19
2019-03-06T01:18:51.727Z,97641.49
2019-03-06T01:21:23.669Z,97635.56
2019-03-06T01:23:55.612Z,97637.13
2019-03-06T01:26:29.342Z,97629.44
2019-03-06T01:29:01.278Z,97623.22
2019-03-06T01:31:33.990Z,97621.37
2019-03-06T01:34:22.572Z,97624.13
2019-03-06T01:37:18.433Z,97614.70
2019-03-06T01:40:23.054Z,97624.26
2019-03-06T01:43:00.546Z,97628.17
2019-03-06T01:45:33.015Z,97616.34
2019-03-06T01:48:05.073Z,97618.75
2019-03-06T01:50:37.629Z,97609.34
2019-03-06T01:53:09.568Z,97601.41
2019-03-06T01:55:41.506Z,97593.28
2019-03-06T01:58:13.979Z,97594.71
2019-03-06T02:00:46.741Z,97594.62
2019-03-06T02:03:18.794Z,97594.63
2019-03-06T02:05:50.992Z,97592.95
2019-03-06T02:08:23.166Z,97588.69
2019-03-06T02:10:55.096Z,97583.33
2019-03-06T02:13:27.352Z,97582.82
2019-03-06T02:15:59.725Z,97573.74
2019-03-06T02:18:32.186Z,97578.31
2019-03-06T02:21:04.125Z,97577.36
2019-03-06T02:23:36.060Z,97574.81
2019-03-06T02:26:08.428Z,97564.09
2019-03-06T02:28:40.378Z,97556.63
2019-03-06T02:31:12.918Z,97548.47
2019-03-06T02:33:45.791Z,97546.41
2019-03-06T02:36:17.733Z,97545.69
2019-03-06T02:38:49.749Z,97544.78
2019-03-06T02:41:21.960Z,97546.20
2019-03-06T02:43:54.211Z,97545.36
2019-03-06T02:46:26.478Z,97538.28
2019-03-06T02:48:58.401Z,97545.81
2019-03-06T02:51:31.300Z,97554.41
2019-03-06T02:54:03.342Z,97554.10
2019-03-06T02:56:35.287Z,97551.06
2019-03-06T02:59:26.790Z,97548.45
2019-03-06T03:02:15.612Z,97548.00
2019-03-06T03:05:01.371Z,97543.31
2019-03-06T03:07:33.310Z,97545.14
2019-03-06T03:10:06.424Z,97546.30
2019-03-06T03:12:38.376Z,97542.36
2019-03-06T03:15:10.762Z,97541.31
2019-03-06T03:17:43.024Z,97549.09
2019-03-06T03:20:15.888Z,97546.23
2019-03-06T03:22:48.566Z,97538.78
2019-03-06T03:25:20.936Z,97532.80
2019-03-06T03:27:53.187Z,97530.52
2019-03-06T03:30:25.439Z,97524.86
2019-03-06T03:32:57.807Z,97524.47
2019-03-06T03:35:30.081Z,97526.31
2019-03-06T03:38:02.203Z,97521.84
2019-03-06T03:40:34.159Z,97509.95
2019-03-06T03:43:06.533Z,97509.92
2019-03-06T03:45:38.475Z,97511.91
2019-03-06T03:48:10.595Z,97517.17
2019-03-06T03:50:42.523Z,97524.81
2019-03-06T03:53:14.475Z,97516.94
2019-03-06T03:55:46.435Z,97512.90
2019-03-06T03:58:18.354Z,97511.92
2019-03-06T04:00:50.277Z,97521.92
2019-03-06T04:03:22.854Z,97525.42
2019-03-06T04:05:55.112Z,97524.39
2019-03-06T04:08:27.678Z,97518.88
2019-03-06T04:10:59.932Z,97524.37
2019-03-06T04:13:32.291Z,97523.02
2019-03-06T04:16:04.638Z,97527.87
2019-03-06T04:18:36.898Z,97530.25
2019-03-06T04:21:09.147Z,97524.84
2019-03-06T04:23:41.098Z,97521.64
2019-03-06T04:26:13.034Z,97525.44
2019-03-06T04:28:45.324Z,97526.64
2019-03-06T04:31:17.857Z,97531.36
2019-03-06T04:33:49.797Z,97531.80
2019-03-06T04:36:22.150Z,97521.26
2019-03-06T04:38:54.510Z,97519.39
2019-03-06T04:41:27.173Z,97517.48
2019-03-06T04:43:59.110Z,97520.72
2019-03-06T04:46:31.647Z,97513.64
2019-03-06T04:49:03.592Z,97502.88
2019-03-06T04:51:36.335Z,97505.20
2019-03-06T04:54:08.278Z,97509.44
2019-03-06T04:56:40.213Z,97517.77
2019-03-06T04:59:12.572Z,97520.56
2019-03-06T05:01:44.514Z,97529.23
2019-03-06T05:04:16.443Z,97530.59
2019-03-06T05:06:49.110Z,97539.41
2019-03-06T05:09:21.464Z,97532.19
2019-03-06T05:11:53.819Z,97523.53
2019-03-06T05:14:25.789Z,97515.10
2019-03-06T05:17:23.132Z,97507.64
2019-03-06T05:19:55.663Z,97516.84
2019-03-06T05:22:27.560Z,97523.97
2019-03-06T05:24:59.811Z,97514.80
2019-03-06T05:27:31.697Z,97509.55
2019-03-06T05:30:04.251Z,97514.37
2019-03-06T05:32:39.804Z,97508.78
2019-03-06T05:36:10.300Z,97493.73
2019-03-06T05:39:11.544Z,97481.91
2019-03-06T05:41:44.027Z,97479.86
2019-03-06T05:44:16.598Z,97481.62
2019-03-06T05:46:48.612Z,97479.05
2019-03-06T05:49:20.946Z,97475.48
2019-03-06T05:51:53.296Z,97463.98
2019-03-06T05:54:25.218Z,97470.87
2019-03-06T05:56:57.603Z,97477.22
2019-03-06T05:59:29.885Z,97480.87
2019-03-06T06:02:02.242Z,97481.48
2019-03-06T06:04:34.679Z,97482.33
2019-03-06T06:07:07.192Z,97495.09
2019-03-06T06:09:39.554Z,97493.66
2019-03-06T06:12:12.598Z,97494.58
2019-03-06T06:14:44.958Z,97495.38
2019-03-06T06:17:17.637Z,97497.52
2019-03-06T06:19:49.961Z,97495.37
2019-03-06T06:22:29.526Z,97488.05
2019-03-06T06:25:01.426Z,97488.27
2019-03-06T06:27:33.539Z,97491.80
2019-03-06T06:30:05.990Z,97482.05
2019-03-06T06:32:38.700Z,97480.33
2019-03-06T06:35:12.536Z,97483.13
2019-03-06T06:37:44.643Z,97472.31
2019-03-06T06:40:17.502Z,97475.09
2019-03-06T06:42:49.597Z,97465.47
2019-03-06T06:45:21.698Z,97458.44
2019-03-06T06:48:28.431Z,97463.11
2019-03-06T06:51:26.674Z,97465.95
2019-03-06T06:54:29.361Z,97466.12
2019-03-06T06:58:03.974Z,97471.69
2019-03-06T07:01:18.364Z,97462.97
2019-03-06T07:05:13.593Z,97448.32
2019-03-06T07:07:59.725Z,97437.83
2019-03-06T07:10:50.129Z,97427.69
2019-03-06T07:13:49.966Z,97440.59
2019-03-06T07:16:39.597Z,97439.59
2019-03-06T07:19:28.504Z,97433.63
2019-03-06T07:22:10.199Z,97426.34
2019-03-06T07:25:10.219Z,97424.77
2019-03-06T07:28:01.006Z,97404.95
2019-03-06T07:31:04.818Z,97396.24
2019-03-06T07:34:02.111Z,97396.13
2019-03-06T07:36:46.243Z,97394.95
2019-03-06T07:39:36.913Z,97383.00
2019-03-06T07:42:26.499Z,97383.22
2019-03-06T07:46:05.719Z,97386.25
2019-03-06T07:49:09.225Z,97391.84
2019-03-06T07:51:59.158Z,97381.11
2019-03-06T07:55:08.109Z,97383.88
2019-03-06T07:58:34.066Z,97383.34
2019-03-06T08:01:06.105Z,97357.67
2019-03-06T08:03:47.890Z,97343.39
2019-03-06T08:06:19.842Z,97334.97
2019-03-06T08:08:52.933Z,97331.58
2019-03-06T08:11:46.822Z,97330.81
2019-03-06T08:14:37.300Z,97326.34
2019-03-06T08:17:34.393Z,97332.25
2019-03-06T08:20:25.349Z,97332.87
2019-03-06T08:23:10.070Z,97344.99
2019-03-06T08:25:48.972Z,97349.26
2019-03-06T08:28:21.228Z,97342.57
2019-03-06T08:31:12.728Z,97339.25
2019-03-06T08:33:45.996Z,97342.49
2019-03-06T08:36:18.361Z,97344.56
2019-03-06T08:38:51.142Z,97342.69
2019-03-06T08:41:24.098Z,97340.64
2019-03-06T08:43:56.690Z,97320.05
2019-03-06T08:46:42.996Z,97308.79
2019-03-06T08:49:43.634Z,97308.41
2019-03-06T08:52:37.251Z,97304.74
2019-03-06T08:55:19.388Z,97300.86
2019-03-06T08:58:16.709Z,97309.70
2019-03-06T09:01:17.239Z,97285.77
2019-03-06T09:04:07.501Z,97282.94
2019-03-06T09:06:54.993Z,97274.36
2019-03-06T09:09:49.150Z,97281.81
2019-03-06T09:12:45.851Z,97269.05
2019-03-06T09:15:40.335Z,97255.36
2019-03-06T09:18:39.767Z,97261.23
2019-03-06T09:21:24.191Z,97259.03
2019-03-06T09:24:15.041Z,97253.95
2019-03-06T09:27:03.015Z,97263.32
2019-03-06T09:29:52.623Z,97260.52
2019-03-06T09:32:33.181Z,97257.55
2019-03-06T09:35:22.217Z,97262.36
2019-03-06T09:38:16.401Z,97258.09
2019-03-06T09:41:06.902Z,97244.07
2019-03-06T09:44:10.252Z,97242.42
2019-03-06T09:46:55.352Z,97228.45
2019-03-06T09:49:45.196Z,97220.44
2019-03-06T09:52:40.800Z,97230.41
2019-03-06T09:55:39.151Z,97215.84
2019-03-06T09:58:30.961Z,97199.65
2019-03-06T10:01:24.688Z,97203.34
2019-03-06T10:04:15.166Z,97200.90
2019-03-06T10:07:18.806Z,97184.93
2019-03-06T10:10:02.416Z,97178.84
2019-03-06T10:12:48.848Z,97190.03
2019-03-06T10:15:38.866Z,97195.84
2019-03-06T10:18:33.922Z,97190.00
2019-03-06T10:21:06.437Z,97191.84
2019-03-06T10:23:40.254Z,97185.80
2019-03-06T10:26:12.351Z,97177.38
2019-03-06T10:28:44.879Z,97168.33
2019-03-06T10:31:17.599Z,97176.59
2019-03-06T10:33:50.113Z,97176.53
2019-03-06T10:36:22.536Z,97177.68
2019-03-06T10:38:54.721Z,97162.92
2019-03-06T10:41:27.027Z,97169.95
2019-03-06T10:43:59.855Z,97160.37
2019-03-06T10:46:33.576Z,97161.42
2019-03-06T10:49:06.591Z,97158.14
2019-03-06T10:51:38.686Z,97168.68
2019-03-06T10:54:11.789Z,97150.77
2019-03-06T10:56:44.351Z,97142.09
2019-03-06T10:59:17.501Z,97136.91
2019-03-06T11:01:50.073Z,97127.70
2019-03-06T11:04:29.728Z,97126.20
2019-03-06T11:07:01.932Z,97120.05
2019-03-06T11:09:35.265Z,97117.21
2019-03-06T11:12:11.080Z,97113.89
2019-03-06T11:14:44.576Z,97104.44
2019-03-06T11:17:17.204Z,97111.95
2019-03-06T11:19:50.244Z,97115.99
2019-03-06T11:22:22.674Z,97109.86
2019-03-06T11:24:55.731Z,97110.00
2019-03-06T11:27:29.032Z,97120.44
2019-03-06T11:30:01.544Z,97119.60
2019-03-06T11:32:34.292Z,97114.19
2019-03-06T11:35:08.042Z,97107.75
2019-03-06T11:37:41.070Z,97106.30
2019-03-06T11:40:13.923Z,97098.61
2019-03-06T11:42:46.770Z,97097.72
2019-03-06T11:45:20.081Z,97089.64
2019-03-06T11:47:52.393Z,97087.03
2019-03-06T11:50:25.047Z,97083.29
2019-03-06T11:52:57.774Z,97072.48
2019-03-06T11:55:30.968Z,97071.72
2019-03-06T11:58:03.492Z,97073.36
2019-03-06T12:00:43.955Z,97067.22
2019-03-06T12:03:20.018Z,97066.04
2019-03-06T12:05:53.172Z,97059.60
2019-03-06T12:08:25.588Z,97054.84
2019-03-06T12:10:59.606Z,97045.39
2019-03-06T12:13:32.122Z,97043.11
2019-03-06T12:16:04.527Z,97042.14
2019-03-06T12:18:36.621Z,97041.08
2019-03-06T12:21:09.348Z,97037.06
2019-03-06T12:23:41.863Z,97022.27
2019-03-06T12:26:15.933Z,97022.05
2019-03-06T12:28:48.556Z,97010.99
2019-03-06T12:31:21.383Z,97011.31
2019-03-06T12:33:53.752Z,96992.25
2019-03-06T12:36:26.592Z,96986.79
2019-03-06T12:38:59.008Z,96979.50
2019-03-06T12:41:32.239Z,96982.00
2019-03-06T12:44:10.459Z,96957.71
2019-03-06T12:46:39.708Z,96959.70
2019-03-06T12:49:15.654Z,96950.27
2019-03-06T12:51:54.403Z,96944.14
2019-03-06T12:54:22.196Z,96935.38
2019-03-06T12:56:54.711Z,96928.25
2019-03-06T12:59:27.234Z,96913.75
2019-03-06T13:01:59.648Z,96913.41
2019-03-06T13:04:32.079Z,96902.44
2019-03-06T13:07:04.590Z,96883.30
2019-03-06T13:09:37.661Z,96870.02
2019-03-06T13:12:11.053Z,96858.78
2019-03-06T13:14:43.981Z,96849.94
2019-03-06T13:17:16.395Z,96854.95
2019-03-06T13:19:48.815Z,96847.41
2019-03-06T13:22:20.894Z,96852.82
2019-03-06T13:24:53.000Z,96856.98
2019-03-06T13:27:25.611Z,96848.14
2019-03-06T13:29:58.449Z,96843.11
2019-03-06T13:32:43.993Z,96837.59
2019-03-06T13:35:16.288Z,96829.17
2019-03-06T13:37:50.075Z,96837.53
2019-03-06T13:40:22.590Z,96825.20
2019-03-06T13:42:55.527Z,96815.58
2019-03-06T13:45:27.657Z,96810.23
2019-03-06T13:48:00.074Z,96798.48
2019-03-06T13:50:32.496Z,96794.89
2019-03-06T13:53:04.791Z,96796.19
2019-03-06T13:55:37.406Z,96794.93
2019-03-06T13:58:10.018Z,96782.20
2019-03-06T14:00:44.175Z,96783.08
2019-03-06T14:03:16.269Z,96777.73
2019-03-06T14:05:49.633Z,96777.87
2019-03-06T14:08:22.335Z,96773.84
2019-03-06T14:10:55.388Z,96769.15
2019-03-06T14:13:28.323Z,96760.44
2019-03-06T14:16:01.451Z,96758.81
2019-03-06T14:18:33.537Z,96757.36
2019-03-06T14:21:06.775Z,96753.48
2019-03-06T14:23:40.478Z,96744.13
2019-03-06T14:26:12.775Z,96745.13
2019-03-06T14:28:46.454Z,96742.22
2019-03-06T14:31:20.574Z,96745.78
2019-03-06T14:33:52.680Z,96742.26
2019-03-06T14:36:25.105Z,96734.51
2019-03-06T14:38:57.200Z,96731.48
2019-03-06T14:41:31.349Z,96722.41
2019-03-06T14:44:03.872Z,96726.42
2019-03-06T14:46:37.161Z,96724.84
2019-03-06T14:49:10.099Z,96730.95
2019-03-06T14:51:44.142Z,96725.78
2019-03-06T14:54:16.965Z,96733.03
2019-03-06T14:56:50.434Z,96732.55
2019-03-06T14:59:22.535Z,96730.58
2019-03-06T15:01:55.055Z,96731.55
2019-03-06T15:04:27.571Z,96735.41
2019-03-06T15:07:01.137Z,96720.39
2019-03-06T15:09:33.317Z,96708.43
2019-03-06T15:12:06.712Z,96706.02
2019-03-06T15:14:39.861Z,96704.08
2019-03-06T15:17:12.802Z,96695.88
2019-03-06T15:19:45.216Z,96696.36
2019-03-06T15:22:17.724Z,96706.38
2019-03-06T15:24:50.138Z,96708.80
2019-03-06T15:27:22.534Z,96708.16
2019-03-06T15:29:55.150Z,96703.15
2019-03-06T15:32:28.089Z,96697.00
2019-03-06T15:35:01.017Z,96695.88
2019-03-06T15:37:34.148Z,96695.22
2019-03-06T15:40:08.258Z,96685.39
2019-03-06T15:42:42.139Z,96684.41
2019-03-06T15:45:16.811Z,96678.68
2019-03-06T15:47:49.237Z,96675.30
2019-03-06T15:50:22.642Z,96665.80
2019-03-06T15:52:55.893Z,96658.69
2019-03-06T15:55:29.477Z,96656.04
2019-03-06T15:58:02.202Z,96653.13
2019-03-06T16:00:45.678Z,96659.80
2019-03-06T16:03:12.503Z,96644.99
2019-03-06T16:05:45.159Z,96636.77
2019-03-06T16:08:18.194Z,96636.40
2019-03-06T16:10:51.591Z,96630.08
2019-03-06T16:13:23.788Z,96625.70
2019-03-06T16:15:57.851Z,96620.38
2019-03-06T16:18:30.478Z,96620.50
2019-03-06T16:21:02.569Z,96619.16
2019-03-06T16:23:36.063Z,96617.87
2019-03-06T16:26:08.474Z,96618.36
2019-03-06T16:28:40.989Z,96615.77
2019-03-06T16:31:13.997Z,96613.18
2019-03-06T16:33:46.945Z,96614.00
2019-03-06T16:36:19.131Z,96607.88
2019-03-06T16:38:51.244Z,96610.95
2019-03-06T16:41:23.765Z,96601.90
2019-03-06T16:43:57.131Z,96595.22
2019-03-06T16:46:30.604Z,96598.83
2019-03-06T16:49:03.230Z,96595.55
2019-03-06T16:51:36.102Z,96595.49
2019-03-06T16:54:08.729Z,96592.82
2019-03-06T16:56:41.512Z,96593.02
2019-03-06T16:59:14.462Z,96588.58
2019-03-06T17:01:46.653Z,96592.52
2019-03-06T17:04:20.132Z,96591.04
2019-03-06T17:06:52.956Z,96594.57
2019-03-06T17:09:25.255Z,96593.25
2019-03-06T17:11:58.214Z,96589.65
2019-03-06T17:14:30.770Z,96592.15
2019-03-06T17:17:03.241Z,96590.56
2019-03-06T17:19:36.175Z,96587.01
2019-03-06T17:22:08.788Z,96585.13
2019-03-06T17:24:41.385Z,96579.97
2019-03-06T17:27:14.231Z,96575.23
2019-03-06T17:29:47.783Z,96581.05
2019-03-06T17:32:20.134Z,96582.94
2019-03-06T17:34:53.012Z,96591.27
2019-03-06T17:37:25.980Z,96594.19
2019-03-06T17:39:59.179Z,96596.53
2019-03-06T17:42:32.464Z,96597.75
2019-03-06T17:45:04.841Z,96593.69
2019-03-06T17:47:39.428Z,96596.22
2019-03-06T17:50:12.254Z,96595.34
2019-03-06T17:52:44.285Z,96593.87
2019-03-06T17:55:17.174Z,96597.17
2019-03-06T17:57:49.738Z,96600.05
2019-03-06T18:00:26.335Z,96601.50
2019-03-06T18:03:00.648Z,96601.73
2019-03-06T18:05:33.639Z,96600.98
2019-03-06T18:08:06.000Z,96602.38
2019-03-06T18:10:38.577Z,96601.41
2019-03-06T18:13:11.146Z,96595.47
2019-03-06T18:15:44.477Z,96592.03
2019-03-06T18:18:17.250Z,96584.20
2019-03-06T18:20:50.409Z,96582.81
2019-03-06T18:23:23.801Z,96581.38
2019-03-06T18:25:55.779Z,96576.06
2019-03-06T18:28:28.082Z,96567.14
2019-03-06T18:31:00.897Z,96566.33
2019-03-06T18:33:33.568Z,96564.30
2019-03-06T18:36:05.927Z,96564.89
2019-03-06T18:38:38.495Z,96555.64
2019-03-06T18:41:10.850Z,96556.28
2019-03-06T18:43:42.999Z,96551.55
2019-03-06T18:46:15.337Z,96548.48
2019-03-06T18:48:47.707Z,96545.70
2019-03-06T18:51:20.503Z,96543.61
2019-03-06T18:53:53.180Z,96541.31
2019-03-06T18:56:25.640Z,96544.08
2019-03-06T18:58:59.061Z,96541.67
2019-03-06T19:01:31.755Z,96542.08
2019-03-06T19:04:04.742Z,96548.14
2019-03-06T19:06:37.343Z,96538.17
2019-03-06T19:09:10.986Z,96537.53
2019-03-06T19:11:43.435Z,96531.02
2019-03-06T19:14:15.795Z,96527.09
2019-03-06T19:16:47.757Z,96521.22
2019-03-06T19:19:20.939Z,96518.08
2019-03-06T19:21:53.621Z,96516.20
2019-03-06T19:24:27.066Z,96512.11
2019-03-06T19:26:59.429Z,96527.64
2019-03-06T19:29:32.200Z,96526.22
2019-03-06T19:32:04.136Z,96524.61
2019-03-06T19:34:36.807Z,96516.14
2019-03-06T19:37:08.959Z,96520.68
2019-03-06T19:39:41.622Z,96513.14
2019-03-06T19:42:13.581Z,96512.72
2019-03-06T19:44:45.837Z,96510.13
2019-03-06T19:47:18.916Z,96504.30
2019-03-06T19:49:52.150Z,96504.04
2019-03-06T19:52:24.521Z,96498.16
2019-03-06T19:54:56.470Z,96491.56
2019-03-06T19:57:28.650Z,96483.27
2019-03-06T20:00:01.279Z,96484.70
2019-03-06T20:02:33.537Z,96480.49
2019-03-06T20:05:07.930Z,96484.72
2019-03-06T20:07:40.246Z,96481.80
2019-03-06T20:10:14.584Z,96478.19
2019-03-06T20:12:47.677Z,96467.11
2019-03-06T20:15:20.933Z,96462.20
2019-03-06T20:17:54.023Z,96454.41
2019-03-06T20:20:26.058Z,96455.33
2019-03-06T20:22:58.634Z,96449.92
2019-03-06T20:25:31.371Z,96444.52
2019-03-06T20:28:03.718Z,96434.48
2019-03-06T20:30:35.950Z,96431.99
2019-03-06T20:33:08.927Z,96434.20
2019-03-06T20:35:41.990Z,96435.59
2019-03-06T20:38:14.036Z,96430.20
2019-03-06T20:40:46.821Z,96434.97
2019-03-06T20:43:19.986Z,96424.77
2019-03-06T20:45:52.696Z,96427.62
2019-03-06T20:48:25.124Z,96421.39
2019-03-06T20:50:57.896Z,96421.83
2019-03-06T20:53:31.001Z,96416.94
2019-03-06T20:56:03.574Z,96415.06
2019-03-06T20:58:35.524Z,96412.92
2019-03-06T21:01:09.352Z,96417.28
2019-03-06T21:03:41.308Z,96417.67
2019-03-06T21:06:14.403Z,96405.56
2019-03-06T21:08:47.396Z,96406.23
2019-03-06T21:11:19.304Z,96413.46
2019-03-06T21:13:51.985Z,96406.76
2019-03-06T21:16:24.511Z,96409.72
2019-03-06T21:18:57.089Z,96405.66
2019-03-06T21:21:29.346Z,96410.32
2019-03-06T21:24:01.716Z,96408.12
2019-03-06T21:26:34.080Z,96411.64
2019-03-06T21:29:06.107Z,96406.69
2019-03-06T21:31:38.469Z,96402.27
2019-03-06T21:34:11.824Z,96396.80
2019-03-06T21:36:44.611Z,96387.61
2019-03-06T21:39:25.787Z,96382.41
2019-03-06T21:41:58.140Z,96387.81
2019-03-06T21:44:30.120Z,96383.30
2019-03-06T21:47:03.122Z,96373.34
2019-03-06T21:49:35.694Z,96366.37
2019-03-06T21:52:07.908Z,96368.42
2019-03-06T21:54:40.256Z,96359.75
2019-03-06T21:57:12.830Z,96368.38
2019-03-06T21:59:44.767Z,96362.24
2019-03-06T22:02:16.704Z,96366.08
2019-03-06T22:04:49.741Z,96356.72
2019-03-06T22:07:22.670Z,96356.77
2019-03-06T22:09:54.609Z,96340.98
2019-03-06T22:12:26.858Z,96343.46
2019-03-06T22:14:58.802Z,96323.91
2019-03-06T22:17:31.383Z,96316.83
2019-03-06T22:20:04.123Z,96327.17
2019-03-06T22:22:36.013Z,96324.14
2019-03-06T22:25:08.863Z,96328.02
2019-03-06T22:27:41.680Z,96327.98
2019-03-06T22:30:18.099Z,96345.22
2019-03-06T22:32:50.527Z,96346.62
2019-03-06T22:35:23.497Z,96353.98
2019-03-06T22:37:57.417Z,96360.38
2019-03-06T22:40:29.894Z,96368.08
2019-03-06T22:43:02.678Z,96354.52
2019-03-06T22:45:35.064Z,96357.54
2019-03-06T22:48:07.638Z,96366.11
2019-03-06T22:50:40.490Z,96370.61
2019-03-06T22:53:13.277Z,96367.24
2019-03-06T22:55:45.639Z,96359.84
2019-03-06T22:58:17.583Z,96352.46
2019-03-06T23:00:59.440Z,96344.36
2019-03-06T23:03:33.302Z,96363.50
2019-03-06T23:06:06.629Z,96365.16
2019-03-06T23:08:39.427Z,96350.84
2019-03-06T23:11:11.962Z,96345.80
2019-03-06T23:13:44.538Z,96336.28
2019-03-06T23:16:17.116Z,96355.52
2019-03-06T23:18:50.126Z,96342.44
2019-03-06T23:21:23.103Z,96328.60
2019-03-06T23:23:55.876Z,96340.69
2019-03-06T23:26:27.815Z,96332.72
2019-03-06T23:29:00.069Z,96324.58
2019-03-06T23:31:32.815Z,96311.08
2019-03-06T23:34:05.072Z,96307.37
2019-03-06T23:36:37.384Z,96297.28
2019-03-06T23:39:13.300Z,96294.74
2019-03-06T23:41:45.659Z,96286.47
2019-03-06T23:44:18.808Z,96290.41
2019-03-06T23:46:50.782Z,96290.53
2019-03-06T23:49:22.716Z,96297.05
2019-03-06T23:52:02.862Z,96301.30
2019-03-06T23:54:34.977Z,96306.25
2019-03-06T23:57:07.331Z,96323.22
2019-03-06T23:59:39.711Z,96315.96
